Time;durP1;ratioP1;P1;durP2;ratioP2;P2;SDS_P1;SDS_P2;PMS_P1;PMS_P2;Temp;Humidity;BMP_temperature;BMP_pressure;BME280_temperature;BME280_humidity;BME280_pressure;Samples;Min_cycle;Max_cycle;Signal;HPM_P1;HPM_P2
2023/07/31 00:00:20;;;;;;;;;;;;;;;;;;5014136;28;19947;-65
2023/07/31 00:02:46;;;;;;;;;;;;;;;;;;5013305;28;19913;-65
2023/07/31 00:05:12;;;;;;;;;;;;;;;;;;5012961;28;20451;-65
2023/07/31 00:07:37;;;;;;;;;;;;;;;;;;5014992;28;20840;-65
2023/07/31 00:10:03;;;;;;;;;;;;;;;;;;5014941;28;19952;-65
2023/07/31 00:12:29;;;;;;;;;;;;;;;;;;5004303;28;20014;-65
2023/07/31 00:14:55;;;;;;;;;;;;;;;;;;5014368;28;19953;-65
2023/07/31 00:17:21;;;;;;;;;;;;;;;;;;5024457;28;19959;-65
2023/07/31 00:19:50;;;;;;;;;;;;;;;;;;5016372;28;19918;-65
2023/07/31 00:22:16;;;;;;;;;;;;;;;;;;5027132;28;19940;-65
2023/07/31 00:24:42;;;;;;;;;;;;;;;;;;5020074;28;20373;-65
2023/07/31 00:27:08;;;;;;;;;;;;;;;;;;5033723;28;19924;-65
2023/07/31 00:29:33;;;;;;;;;;;;;;;;;;5014640;28;20265;-65
2023/07/31 00:31:59;;;;;;;;;;;;;;;;;;5016407;28;19917;-65
2023/07/31 00:34:25;;;;;;;;;;;;;;;;;;5014248;28;19980;-65
2023/07/31 00:36:51;;;;;;;;;;;;;;;;;;4994383;28;19917;-65
2023/07/31 00:39:17;;;;;;;;;;;;;;;;;;5014780;28;19917;-65
2023/07/31 00:41:43;;;;;;;;;;;;;;;;;;5027407;28;19975;-65
2023/07/31 00:44:09;;;;;;;;;;;;;;;;;;5005924;28;19920;-65
2023/07/31 00:46:35;;;;;;;;;;;;;;;;;;5017451;28;20273;-65
2023/07/31 00:49:01;;;;;;;;;;;;;;;;;;5010929;28;19964;-65
2023/07/31 00:51:26;;;;;;;;;;;;;;;;;;5014080;28;19974;-65
2023/07/31 00:53:54;;;;;;;;;;;;;;;;;;5012610;28;19964;-65
2023/07/31 00:56:20;;;;;;;;;;;;;;;;;;5014967;28;19914;-65
2023/07/31 00:58:45;;;;;;;;;;;;;;;;;;5012561;28;19941;-65
2023/07/31 01:01:11;;;;;;;;;;;;;;;;;;5013186;28;20012;-60
2023/07/31 01:03:37;;;;;;;;;;;;;;;;;;5013605;28;19933;-61
2023/07/31 01:06:03;;;;;;;;;;;;;;;;;;5011942;28;20461;-63
2023/07/31 01:08:29;;;;;;;;;;;;;;;;;;5012166;28;19917;-60
2023/07/31 01:10:55;;;;;;;;;;;;;;;;;;5012599;28;20324;-60
2023/07/31 01:13:21;;;;;;;;;;;;;;;;;;5014213;28;19979;-60
2023/07/31 01:15:47;;;;;;;;;;;;;;;;;;5013667;28;19915;-60
2023/07/31 01:18:13;;;;;;;;;;;;;;;;;;5013043;28;19953;-59
2023/07/31 01:20:38;;;;;;;;;;;;;;;;;;5013142;28;19920;-62
2023/07/31 01:23:04;;;;;;;;;;;;;;;;;;5003793;28;20633;-61
2023/07/31 01:25:30;;;;;;;;;;;;;;;;;;5025362;28;19917;-60
2023/07/31 01:27:56;;;;;;;;;;;;;;;;;;5018890;28;19913;-59
2023/07/31 01:30:22;;;;;;;;;;;;;;;;;;5009929;28;20472;-59
2023/07/31 01:32:48;;;;;;;;;;;;;;;;;;5017152;28;19960;-59
2023/07/31 01:35:14;;;;;;;;;;;;;;;;;;5018841;28;19929;-61
2023/07/31 01:37:40;;;;;;;;;;;;;;;;;;5020095;28;20357;-59
2023/07/31 01:40:06;;;;;;;;;;;;;;;;;;5005783;28;19956;-60
2023/07/31 01:42:32;;;;;;;;;;;;;;;;;;5015628;28;19921;-61
2023/07/31 01:44:58;;;;;;;;;;;;;;;;;;5016440;28;19948;-61
2023/07/31 01:47:24;;;;;;;;;;;;;;;;;;5027137;28;21991;-59
2023/07/31 01:49:50;;;;;;;;;;;;;;;;;;5021588;28;19953;-62
2023/07/31 01:52:15;;;;;;;;;;;;;;;;;;5012616;28;19949;-60
2023/07/31 01:54:41;;;;;;;;;;;;;;;;;;5012031;28;19963;-60
2023/07/31 01:57:07;;;;;;;;;;;;;;;;;;5012394;28;20326;-59
2023/07/31 01:59:33;;;;;;;;;;;;;;;;;;5019374;28;19966;-59
2023/07/31 02:01:59;;;;;;;;;;;;;;;;;;5012338;28;20011;-59
2023/07/31 02:04:25;;;;;;;;;;;;;;;;;;5015802;28;19960;-65
2023/07/31 02:06:51;;;;;;;;;;;;;;;;;;5017967;28;20021;-60
2023/07/31 02:09:17;;;;;;;;;;;;;;;;;;5010962;28;20039;-59
2023/07/31 02:11:43;;;;;;;;;;;;;;;;;;5011015;28;19914;-62
2023/07/31 02:14:09;;;;;;;;;;;;;;;;;;5009139;28;20002;-59
2023/07/31 02:16:34;;;;;;;;;;;;;;;;;;5015591;28;19913;-60
2023/07/31 02:19:00;;;;;;;;;;;;;;;;;;5029052;28;20059;-59
2023/07/31 02:21:26;;;;;;;;;;;;;;;;;;5012689;28;19913;-61
2023/07/31 02:23:52;;;;;;;;;;;;;;;;;;5011405;28;19925;-61
2023/07/31 02:26:18;;;;;;;;;;;;;;;;;;5019021;28;19956;-60
2023/07/31 02:28:44;;;;;;;;;;;;;;;;;;5029035;28;19984;-59
2023/07/31 02:31:10;;;;;;;;;;;;;;;;;;5015302;28;20005;-59
2023/07/31 02:33:36;;;;;;;;;;;;;;;;;;5013741;28;20047;-60
2023/07/31 02:36:02;;;;;;;;;;;;;;;;;;5024882;28;20360;-59
2023/07/31 02:38:28;;;;;;;;;;;;;;;;;;5021484;28;19956;-59
2023/07/31 02:40:53;;;;;;;;;;;;;;;;;;5016622;28;20288;-61
2023/07/31 02:43:19;;;;;;;;;;;;;;;;;;5009676;28;20022;-60
2023/07/31 02:45:45;;;;;;;;;;;;;;;;;;5018380;28;19976;-59
2023/07/31 02:48:11;;;;;;;;;;;;;;;;;;5005183;28;19947;-59
2023/07/31 02:50:37;;;;;;;;;;;;;;;;;;5000790;28;19918;-60
2023/07/31 02:53:03;;;;;;;;;;;;;;;;;;5012594;28;19918;-60
2023/07/31 02:55:29;;;;;;;;;;;;;;;;;;5012462;28;19948;-61
2023/07/31 02:57:55;;;;;;;;;;;;;;;;;;5010594;28;19913;-61
2023/07/31 03:00:21;;;;;;;;;;;;;;;;;;5012582;28;19971;-60
2023/07/31 03:02:47;;;;;;;;;;;;;;;;;;5012280;28;20337;-61
2023/07/31 03:05:12;;;;;;;;;;;;;;;;;;5010220;28;20515;-60
2023/07/31 03:07:38;;;;;;;;;;;;;;;;;;5010357;28;20051;-59
2023/07/31 03:10:05;;;;;;;;;;;;;;;;;;5011477;28;19910;-59
2023/07/31 03:12:30;;;;;;;;;;;;;;;;;;5011032;28;19913;-59
2023/07/31 03:14:56;;;;;;;;;;;;;;;;;;5011929;28;19953;-60
2023/07/31 03:17:22;;;;;;;;;;;;;;;;;;5012126;28;20333;-62
2023/07/31 03:19:48;;;;;;;;;;;;;;;;;;5013954;28;20016;-60
2023/07/31 03:22:14;;;;;;;;;;;;;;;;;;5015119;28;20004;-59
2023/07/31 03:24:40;;;;;;;;;;;;;;;;;;5015274;28;19953;-59
2023/07/31 03:27:06;;;;;;;;;;;;;;;;;;5029708;28;20376;-60
2023/07/31 03:29:32;;;;;;;;;;;;;;;;;;5028629;28;19913;-59
2023/07/31 03:31:59;;;;;;;;;;;;;;;;;;5026751;28;19918;-61
2023/07/31 03:34:24;;;;;;;;;;;;;;;;;;5016765;28;19953;-59
2023/07/31 03:36:50;;;;;;;;;;;;;;;;;;5013451;28;19948;-60
2023/07/31 03:39:16;;;;;;;;;;;;;;;;;;5013365;28;19914;-59
2023/07/31 03:41:42;;;;;;;;;;;;;;;;;;5017015;28;20483;-60
2023/07/31 03:44:08;;;;;;;;;;;;;;;;;;5026854;28;19921;-59
2023/07/31 03:46:35;;;;;;;;;;;;;;;;;;5013870;28;20288;-61
2023/07/31 03:49:01;;;;;;;;;;;;;;;;;;5012863;28;19913;-60
2023/07/31 03:51:27;;;;;;;;;;;;;;;;;;5015740;28;20010;-60
2023/07/31 03:53:53;;;;;;;;;;;;;;;;;;5027343;28;20303;-59
2023/07/31 03:56:19;;;;;;;;;;;;;;;;;;5018808;28;19960;-61
2023/07/31 03:58:45;;;;;;;;;;;;;;;;;;5021869;28;19967;-60
2023/07/31 04:01:11;;;;;;;;;;;;;;;;;;5021511;28;19913;-61
2023/07/31 04:03:37;;;;;;;;;;;;;;;;;;5008821;28;19960;-59
2023/07/31 04:06:03;;;;;;;;;;;;;;;;;;5014231;28;19956;-60
2023/07/31 04:08:28;;;;;;;;;;;;;;;;;;5010917;28;19965;-59
2023/07/31 04:10:54;;;;;;;;;;;;;;;;;;5012059;28;20355;-61
2023/07/31 04:13:20;;;;;;;;;;;;;;;;;;5013027;28;19927;-59
2023/07/31 04:15:47;;;;;;;;;;;;;;;;;;5014378;28;19922;-61
2023/07/31 04:18:13;;;;;;;;;;;;;;;;;;4995528;28;19925;-60
2023/07/31 04:20:38;;;;;;;;;;;;;;;;;;5018554;28;20280;-59
2023/07/31 04:23:04;;;;;;;;;;;;;;;;;;5008783;28;19952;-61
2023/07/31 04:25:31;;;;;;;;;;;;;;;;;;5018188;28;19920;-63
2023/07/31 04:27:57;;;;;;;;;;;;;;;;;;5010559;28;19933;-60
2023/07/31 04:30:23;;;;;;;;;;;;;;;;;;5023501;28;19922;-61
2023/07/31 04:32:49;;;;;;;;;;;;;;;;;;5013487;28;20055;-62
2023/07/31 04:35:15;;;;;;;;;;;;;;;;;;5016797;28;19917;-65
2023/07/31 04:37:41;;;;;;;;;;;;;;;;;;5014397;28;19921;-65
2023/07/31 04:40:08;;;;;;;;;;;;;;;;;;5013219;28;19967;-65
2023/07/31 04:42:34;;;;;;;;;;;;;;;;;;5011602;28;19936;-64
2023/07/31 04:45:00;;;;;;;;;;;;;;;;;;5005107;28;19913;-65
2023/07/31 04:47:26;;;;;;;;;;;;;;;;;;5011830;28;20373;-65
2023/07/31 04:49:52;;;;;;;;;;;;;;;;;;5012604;28;19914;-65
2023/07/31 04:52:18;;;;;;;;;;;;;;;;;;5014138;28;20411;-65
2023/07/31 04:54:43;;;;;;;;;;;;;;;;;;5012537;28;20012;-65
2023/07/31 04:57:09;;;;;;;;;;;;;;;;;;5013542;28;20013;-65
2023/07/31 04:59:36;;;;;;;;;;;;;;;;;;5010192;28;20372;-65
2023/07/31 05:02:02;;;;;;;;;;;;;;;;;;5011705;28;20328;-65
2023/07/31 05:04:28;;;;;;;;;;;;;;;;;;5010347;28;19968;-65
2023/07/31 05:06:56;;;;;;;;;;;;;;;;;;5011874;28;21554;-65
2023/07/31 05:09:22;;;;;;;;;;;;;;;;;;5012320;28;20417;-65
2023/07/31 05:11:47;;;;;;;;;;;;;;;;;;5012312;28;19949;-65
2023/07/31 05:14:13;;;;;;;;;;;;;;;;;;5010159;28;19953;-65
2023/07/31 05:16:39;;;;;;;;;;;;;;;;;;5012012;28;19913;-65
2023/07/31 05:19:05;;;;;;;;;;;;;;;;;;5012634;28;20071;-65
2023/07/31 05:21:31;;;;;;;;;;;;;;;;;;5011992;28;19917;-65
2023/07/31 05:23:57;;;;;;;;;;;;;;;;;;5013376;28;19914;-65
2023/07/31 05:26:23;;;;;;;;;;;;;;;;;;5012816;28;19991;-65
2023/07/31 05:28:49;;;;;;;;;;;;;;;;;;5010356;28;19949;-65
2023/07/31 05:31:15;;;;;;;;;;;;;;;;;;5010237;28;19991;-65
2023/07/31 05:33:41;;;;;;;;;;;;;;;;;;5022306;28;19945;-65
2023/07/31 05:36:06;;;;;;;;;;;;;;;;;;5015508;28;20327;-65
2023/07/31 05:38:32;;;;;;;;;;;;;;;;;;4998929;28;19967;-65
2023/07/31 05:40:58;;;;;;;;;;;;;;;;;;5012699;28;19972;-65
2023/07/31 05:43:24;;;;;;;;;;;;;;;;;;5013685;28;19952;-65
2023/07/31 05:45:50;;;;;;;;;;;;;;;;;;5010950;28;20003;-59
2023/07/31 05:48:16;;;;;;;;;;;;;;;;;;5007214;28;20384;-61
2023/07/31 05:50:42;;;;;;;;;;;;;;;;;;5010839;28;19948;-60
2023/07/31 05:53:08;;;;;;;;;;;;;;;;;;5017023;28;20021;-59
2023/07/31 05:55:34;;;;;;;;;;;;;;;;;;5010157;28;19955;-59
2023/07/31 05:58:00;;;;;;;;;;;;;;;;;;5012553;28;20451;-62
2023/07/31 06:00:26;;;;;;;;;;;;;;;;;;5009621;28;19939;-60
2023/07/31 06:02:52;;;;;;;;;;;;;;;;;;5011957;28;20385;-59
2023/07/31 06:05:18;;;;;;;;;;;;;;;;;;5010621;28;20006;-59
2023/07/31 06:07:44;;;;;;;;;;;;;;;;;;5007467;28;19920;-60
2023/07/31 06:10:10;;;;;;;;;;;;;;;;;;5012654;28;19913;-59
2023/07/31 06:12:35;;;;;;;;;;;;;;;;;;5011994;28;19914;-61
2023/07/31 06:15:01;;;;;;;;;;;;;;;;;;5010526;28;19948;-61
2023/07/31 06:17:27;;;;;;;;;;;;;;;;;;5012441;28;20254;-61
2023/07/31 06:19:53;;;;;;;;;;;;;;;;;;5011319;28;19913;-59
2023/07/31 06:22:19;;;;;;;;;;;;;;;;;;5009972;28;20007;-62
2023/07/31 06:24:45;;;;;;;;;;;;;;;;;;5008829;28;19917;-59
2023/07/31 06:27:11;;;;;;;;;;;;;;;;;;5009435;28;20364;-59
2023/07/31 06:29:37;;;;;;;;;;;;;;;;;;4990570;28;19948;-61
2023/07/31 06:32:03;;;;;;;;;;;;;;;;;;5008981;28;20000;-65
2023/07/31 06:34:29;;;;;;;;;;;;;;;;;;5009720;28;21670;-59
2023/07/31 06:36:55;;;;;;;;;;;;;;;;;;5011729;28;19952;-60
2023/07/31 06:39:20;;;;;;;;;;;;;;;;;;5012017;28;19951;-59
2023/07/31 06:41:46;;;;;;;;;;;;;;;;;;5010943;28;20267;-61
2023/07/31 06:44:12;;;;;;;;;;;;;;;;;;5022820;28;20392;-59
2023/07/31 06:46:38;;;;;;;;;;;;;;;;;;5014086;28;19924;-60
2023/07/31 06:49:04;;;;;;;;;;;;;;;;;;5009305;28;19921;-60
2023/07/31 06:51:31;;;;;;;;;;;;;;;;;;5008237;28;19922;-60
2023/07/31 06:53:57;;;;;;;;;;;;;;;;;;5011287;28;19918;-65
2023/07/31 06:56:23;;;;;;;;;;;;;;;;;;5013169;28;19924;-65
2023/07/31 06:58:49;;;;;;;;;;;;;;;;;;5010559;28;20337;-65
2023/07/31 07:01:14;;;;;;;;;;;;;;;;;;5010404;28;19971;-65
2023/07/31 07:03:40;;;;;;;;;;;;;;;;;;5008114;28;19975;-65
2023/07/31 07:06:06;;;;;;;;;;;;;;;;;;5003185;28;19922;-65
2023/07/31 07:08:32;;;;;;;;;;;;;;;;;;5007596;28;19921;-65
2023/07/31 07:10:58;;;;;;;;;;;;;;;;;;5008720;28;19984;-65
2023/07/31 07:13:24;;;;;;;;;;;;;;;;;;5006483;28;20392;-65
2023/07/31 07:15:50;;;;;;;;;;;;;;;;;;5007743;28;19952;-65
2023/07/31 07:18:16;;;;;;;;;;;;;;;;;;5009204;28;20000;-65
2023/07/31 07:20:42;;;;;;;;;;;;;;;;;;5014646;28;19964;-65
2023/07/31 07:23:08;;;;;;;;;;;;;;;;;;4998144;28;19991;-65
2023/07/31 07:25:34;;;;;;;;;;;;;;;;;;5003870;28;19946;-65
2023/07/31 07:28:00;;;;;;;;;;;;;;;;;;5006383;28;20004;-67
2023/07/31 07:30:26;;;;;;;;;;;;;;;;;;5007415;28;20365;-64
2023/07/31 07:32:52;;;;;;;;;;;;;;;;;;5010595;28;19914;-64
2023/07/31 07:35:18;;;;;;;;;;;;;;;;;;5011384;28;19948;-64
2023/07/31 07:37:43;;;;;;;;;;;;;;;;;;5015995;28;19923;-65
2023/07/31 07:40:10;;;;;;;;;;;;;;;;;;5013061;28;19968;-65
2023/07/31 07:42:35;;;;;;;;;;;;;;;;;;5015231;28;19925;-65
2023/07/31 07:45:01;;;;;;;;;;;;;;;;;;5007294;28;19983;-65
2023/07/31 07:47:27;;;;;;;;;;;;;;;;;;5012489;28;19929;-65
2023/07/31 07:49:53;;;;;;;;;;;;;;;;;;5024231;28;20378;-65
2023/07/31 07:52:19;;;;;;;;;;;;;;;;;;5011200;28;19996;-65
2023/07/31 07:54:45;;;;;;;;;;;;;;;;;;5008677;28;19920;-65
2023/07/31 07:57:11;;;;;;;;;;;;;;;;;;5009336;28;19914;-65
2023/07/31 07:59:37;;;;;;;;;;;;;;;;;;5007792;28;19973;-65
2023/07/31 08:02:03;;;;;;;;;;;;;;;;;;5006491;28;20982;-65
2023/07/31 08:04:29;;;;;;;;;;;;;;;;;;5007316;28;20405;-64
2023/07/31 08:06:54;;;;;;;;;;;;;;;;;;5014650;28;19967;-66
2023/07/31 08:09:20;;;;;;;;;;;;;;;;;;5009950;28;19975;-65
2023/07/31 08:11:46;;;;;;;;;;;;;;;;;;5014889;28;20436;-65
2023/07/31 08:14:12;;;;;;;;;;;;;;;;;;5010212;28;19914;-65
2023/07/31 08:16:38;;;;;;;;;;;;;;;;;;5009656;28;20105;-65
2023/07/31 08:19:04;;;;;;;;;;;;;;;;;;5011093;28;19953;-65
2023/07/31 08:21:30;;;;;;;;;;;;;;;;;;5009154;28;19960;-65
2023/07/31 08:23:56;;;;;;;;;;;;;;;;;;5010575;28;19924;-65
2023/07/31 08:26:22;;;;;;;;;;;;;;;;;;5007041;28;19921;-65
2023/07/31 08:28:48;;;;;;;;;;;;;;;;;;5012386;28;19960;-65
2023/07/31 08:31:14;;;;;;;;;;;;;;;;;;5009338;28;19916;-64
2023/07/31 08:33:40;;;;;;;;;;;;;;;;;;5014947;28;19959;-65
2023/07/31 08:36:06;;;;;;;;;;;;;;;;;;5011358;28;19917;-65
2023/07/31 08:38:31;;;;;;;;;;;;;;;;;;5008664;28;20033;-65
2023/07/31 08:40:57;;;;;;;;;;;;;;;;;;5019728;28;19913;-65
2023/07/31 08:43:23;;;;;;;;;;;;;;;;;;5019134;28;19941;-65
2023/07/31 08:45:49;;;;;;;;;;;;;;;;;;5011043;28;19958;-65
2023/07/31 08:48:15;;;;;;;;;;;;;;;;;;5012865;28;19920;-65
2023/07/31 08:50:41;;;;;;;;;;;;;;;;;;4993433;28;20265;-65
2023/07/31 08:53:07;;;;;;;;;;;;;;;;;;5020490;28;20019;-65
2023/07/31 08:55:33;;;;;;;;;;;;;;;;;;5008617;28;19909;-65
2023/07/31 08:57:59;;;;;;;;;;;;;;;;;;5017259;28;20027;-65
2023/07/31 09:00:25;;;;;;;;;;;;;;;;;;5008804;28;19914;-65
2023/07/31 09:02:51;;;;;;;;;;;;;;;;;;5011661;28;19938;-65
2023/07/31 09:05:17;;;;;;;;;;;;;;;;;;5008511;28;20281;-65
2023/07/31 09:07:46;;;;;;;;;;;;;;;;;;5010651;28;20007;-65
2023/07/31 09:10:11;;;;;;;;;;;;;;;;;;5013505;28;19921;-65
2023/07/31 09:12:38;;;;;;;;;;;;;;;;;;5007977;28;20008;-65
2023/07/31 09:15:04;;;;;;;;;;;;;;;;;;5006477;28;19933;-64
2023/07/31 09:17:30;;;;;;;;;;;;;;;;;;5004740;28;20441;-65
2023/07/31 09:19:56;;;;;;;;;;;;;;;;;;5010525;28;19925;-65
2023/07/31 09:22:22;;;;;;;;;;;;;;;;;;5012721;28;20659;-65
2023/07/31 09:24:48;;;;;;;;;;;;;;;;;;5011393;28;19959;-65
2023/07/31 09:27:14;;;;;;;;;;;;;;;;;;4992439;28;20262;-65
2023/07/31 09:29:40;;;;;;;;;;;;;;;;;;5006921;28;19918;-65
2023/07/31 09:32:06;;;;;;;;;;;;;;;;;;5005711;28;19979;-64
2023/07/31 09:34:32;;;;;;;;;;;;;;;;;;5011541;28;19921;-64
2023/07/31 09:36:58;;;;;;;;;;;;;;;;;;5008969;28;19914;-65
2023/07/31 09:39:24;;;;;;;;;;;;;;;;;;5007157;28;19949;-65
2023/07/31 09:41:49;;;;;;;;;;;;;;;;;;5004747;28;20355;-64
2023/07/31 09:44:15;;;;;;;;;;;;;;;;;;5010965;28;19980;-64
2023/07/31 09:46:42;;;;;;;;;;;;;;;;;;5012069;28;19976;-64
2023/07/31 09:49:11;;;;;;;;;;;;;;;;;;5009989;28;19918;-64
2023/07/31 09:51:40;;;;;;;;;;;;;;;;;;5005498;28;19922;-64
2023/07/31 09:54:06;;;;;;;;;;;;;;;;;;5009988;28;19936;-64
2023/07/31 09:56:32;;;;;;;;;;;;;;;;;;5006359;28;19953;-65
2023/07/31 09:58:58;;;;;;;;;;;;;;;;;;5012876;28;19931;-65
2023/07/31 10:01:24;;;;;;;;;;;;;;;;;;5018683;28;19975;-64
2023/07/31 10:03:50;;;;;;;;;;;;;;;;;;5006287;28;20482;-65
2023/07/31 10:06:18;;;;;;;;;;;;;;;;;;5009928;28;20011;-64
2023/07/31 10:08:44;;;;;;;;;;;;;;;;;;5007293;28;19941;-65
2023/07/31 10:11:10;;;;;;;;;;;;;;;;;;5010373;28;20011;-65
2023/07/31 10:13:36;;;;;;;;;;;;;;;;;;5010046;28;19921;-64
2023/07/31 10:16:02;;;;;;;;;;;;;;;;;;5011823;28;20411;-64
2023/07/31 10:18:28;;;;;;;;;;;;;;;;;;5010452;28;19917;-64
2023/07/31 10:20:53;;;;;;;;;;;;;;;;;;5009961;28;20332;-64
2023/07/31 10:23:19;;;;;;;;;;;;;;;;;;5004295;28;19952;-67
2023/07/31 10:25:45;;;;;;;;;;;;;;;;;;5004114;28;19921;-65
2023/07/31 10:28:11;;;;;;;;;;;;;;;;;;5008653;28;19917;-65
2023/07/31 10:30:38;;;;;;;;;;;;;;;;;;5011997;28;19956;-64
2023/07/31 10:33:04;;;;;;;;;;;;;;;;;;5011114;28;20299;-64
2023/07/31 10:35:30;;;;;;;;;;;;;;;;;;5013978;28;19936;-65
2023/07/31 10:37:56;;;;;;;;;;;;;;;;;;5011597;28;20385;-64
2023/07/31 10:40:21;;;;;;;;;;;;;;;;;;5015792;28;19924;-64
2023/07/31 10:42:48;;;;;;;;;;;;;;;;;;5016371;28;20262;-64
2023/07/31 10:45:14;;;;;;;;;;;;;;;;;;5006573;28;19921;-64
2023/07/31 10:47:40;;;;;;;;;;;;;;;;;;5010545;28;19980;-64
2023/07/31 10:50:05;;;;;;;;;;;;;;;;;;5005503;28;20067;-64
2023/07/31 10:52:31;;;;;;;;;;;;;;;;;;5017831;28;19952;-64
2023/07/31 10:54:57;;;;;;;;;;;;;;;;;;5007501;28;19925;-64
2023/07/31 10:57:25;;;;;;;;;;;;;;;;;;5007663;28;20436;-64
2023/07/31 10:59:51;;;;;;;;;;;;;;;;;;5005375;28;20265;-64
2023/07/31 11:02:17;;;;;;;;;;;;;;;;;;5003448;28;19953;-64
2023/07/31 11:04:42;;;;;;;;;;;;;;;;;;4999229;28;19928;-66
2023/07/31 11:07:10;;;;;;;;;;;;;;;;;;5005014;28;20363;-64
2023/07/31 11:09:36;;;;;;;;;;;;;;;;;;5003974;28;19922;-64
2023/07/31 11:12:02;;;;;;;;;;;;;;;;;;5007006;28;19921;-64
2023/07/31 11:14:28;;;;;;;;;;;;;;;;;;5004908;28;20180;-64
2023/07/31 11:16:54;;;;;;;;;;;;;;;;;;5002297;28;19920;-64
2023/07/31 11:19:20;;;;;;;;;;;;;;;;;;5004398;28;20000;-64
2023/07/31 11:21:46;;;;;;;;;;;;;;;;;;5004931;28;19926;-64
2023/07/31 11:24:12;;;;;;;;;;;;;;;;;;5013561;28;19971;-63
2023/07/31 11:26:37;;;;;;;;;;;;;;;;;;5008428;28;19953;-64
2023/07/31 11:29:03;;;;;;;;;;;;;;;;;;5005848;28;19953;-64
2023/07/31 11:31:29;;;;;;;;;;;;;;;;;;5006580;28;19920;-64
2023/07/31 11:33:55;;;;;;;;;;;;;;;;;;5006270;28;20334;-60
2023/07/31 11:36:21;;;;;;;;;;;;;;;;;;5001353;28;20391;-61
2023/07/31 11:38:47;;;;;;;;;;;;;;;;;;5004452;28;19914;-60
2023/07/31 11:41:13;;;;;;;;;;;;;;;;;;5004677;28;19975;-61
2023/07/31 11:43:39;;;;;;;;;;;;;;;;;;5006456;28;19957;-59
2023/07/31 11:46:06;;;;;;;;;;;;;;;;;;5007805;28;20339;-60
2023/07/31 11:48:33;;;;;;;;;;;;;;;;;;5011233;28;19936;-62
2023/07/31 11:50:59;;;;;;;;;;;;;;;;;;5007417;28;19921;-59
2023/07/31 11:53:25;;;;;;;;;;;;;;;;;;5010722;28;19917;-60
2023/07/31 11:55:51;;;;;;;;;;;;;;;;;;5013312;28;19968;-59
2023/07/31 11:58:17;;;;;;;;;;;;;;;;;;5008590;28;20348;-60
2023/07/31 12:00:43;;;;;;;;;;;;;;;;;;5008164;28;19917;-62
2023/07/31 12:03:09;;;;;;;;;;;;;;;;;;5006760;28;19926;-61
2023/07/31 12:05:35;;;;;;;;;;;;;;;;;;5014009;28;20311;-59
2023/07/31 12:08:01;;;;;;;;;;;;;;;;;;5011408;28;19919;-63
2023/07/31 12:10:26;;;;;;;;;;;;;;;;;;5007497;28;19914;-60
2023/07/31 12:12:52;;;;;;;;;;;;;;;;;;5012094;28;19960;-61
2023/07/31 12:15:20;;;;;;;;;;;;;;;;;;5007185;28;19918;-60
2023/07/31 12:17:46;;;;;;;;;;;;;;;;;;5007086;28;19968;-60
2023/07/31 12:20:11;;;;;;;;;;;;;;;;;;5001366;28;20021;-60
2023/07/31 12:22:38;;;;;;;;;;;;;;;;;;5004281;28;20027;-60
2023/07/31 12:25:04;;;;;;;;;;;;;;;;;;5006158;28;20641;-61
2023/07/31 12:27:30;;;;;;;;;;;;;;;;;;5006993;28;19999;-61
2023/07/31 12:29:55;;;;;;;;;;;;;;;;;;5007636;28;19956;-60
2023/07/31 12:32:21;;;;;;;;;;;;;;;;;;5005881;28;19940;-61
2023/07/31 12:34:47;;;;;;;;;;;;;;;;;;5007634;28;20439;-59
2023/07/31 12:37:13;;;;;;;;;;;;;;;;;;5005648;28;20004;-59
2023/07/31 12:39:39;;;;;;;;;;;;;;;;;;5006145;28;19932;-65
2023/07/31 12:42:06;;;;;;;;;;;;;;;;;;5005896;28;19965;-62
2023/07/31 12:44:32;;;;;;;;;;;;;;;;;;5006293;28;19913;-64
2023/07/31 12:46:57;;;;;;;;;;;;;;;;;;5002514;28;20429;-64
2023/07/31 12:49:23;;;;;;;;;;;;;;;;;;5006285;28;19917;-65
2023/07/31 12:51:49;;;;;;;;;;;;;;;;;;5004766;28;19921;-64
2023/07/31 12:54:15;;;;;;;;;;;;;;;;;;5009249;28;19924;-64
2023/07/31 12:56:41;;;;;;;;;;;;;;;;;;5006366;28;19913;-63
2023/07/31 12:59:07;;;;;;;;;;;;;;;;;;5006529;28;20365;-63
2023/07/31 13:01:33;;;;;;;;;;;;;;;;;;4999370;28;19953;-65
2023/07/31 13:03:59;;;;;;;;;;;;;;;;;;5007630;28;20451;-64
2023/07/31 13:06:25;;;;;;;;;;;;;;;;;;5005559;28;19977;-62
2023/07/31 13:08:51;;;;;;;;;;;;;;;;;;5006311;28;19913;-63
2023/07/31 13:11:16;;;;;;;;;;;;;;;;;;5005744;28;19921;-64
2023/07/31 13:13:42;;;;;;;;;;;;;;;;;;5007394;28;19926;-63
2023/07/31 13:16:08;;;;;;;;;;;;;;;;;;5004952;28;19921;-63
2023/07/31 13:18:34;;;;;;;;;;;;;;;;;;5002365;28;20411;-63
2023/07/31 13:21:00;;;;;;;;;;;;;;;;;;5001301;28;19914;-63
2023/07/31 13:23:26;;;;;;;;;;;;;;;;;;5007323;28;20002;-63
2023/07/31 13:25:52;;;;;;;;;;;;;;;;;;5008055;28;19987;-63
2023/07/31 13:28:18;;;;;;;;;;;;;;;;;;5011883;28;19963;-63
2023/07/31 13:30:44;;;;;;;;;;;;;;;;;;5010416;28;19918;-63
2023/07/31 13:33:10;;;;;;;;;;;;;;;;;;5010417;28;19910;-63
2023/07/31 13:35:35;;;;;;;;;;;;;;;;;;5011320;28;20368;-64
2023/07/31 13:38:01;;;;;;;;;;;;;;;;;;5006084;28;20004;-63
2023/07/31 13:40:27;;;;;;;;;;;;;;;;;;5009623;28;19913;-63
2023/07/31 13:42:54;;;;;;;;;;;;;;;;;;5011861;28;19971;-63
2023/07/31 13:45:20;;;;;;;;;;;;;;;;;;5010210;28;19918;-63
2023/07/31 13:47:46;;;;;;;;;;;;;;;;;;5011607;28;19956;-63
2023/07/31 13:50:12;;;;;;;;;;;;;;;;;;4992856;28;20003;-62
2023/07/31 13:52:38;;;;;;;;;;;;;;;;;;5010747;28;20266;-62
2023/07/31 13:55:04;;;;;;;;;;;;;;;;;;5012319;28;19949;-64
2023/07/31 13:57:30;;;;;;;;;;;;;;;;;;5006633;28;20458;-63
2023/07/31 13:59:55;;;;;;;;;;;;;;;;;;5009962;28;19913;-62
2023/07/31 14:02:21;;;;;;;;;;;;;;;;;;5009101;28;21348;-64
2023/07/31 14:04:47;;;;;;;;;;;;;;;;;;5009011;28;19975;-62
2023/07/31 14:07:13;;;;;;;;;;;;;;;;;;5007764;28;20016;-65
2023/07/31 14:09:39;;;;;;;;;;;;;;;;;;5007896;28;19988;-64
2023/07/31 14:12:05;;;;;;;;;;;;;;;;;;5006751;28;19917;-63
2023/07/31 14:14:33;;;;;;;;;;;;;;;;;;5010823;28;19920;-62
2023/07/31 14:16:59;;;;;;;;;;;;;;;;;;5009401;28;19964;-63
2023/07/31 14:19:25;;;;;;;;;;;;;;;;;;5010301;28;20393;-63
2023/07/31 14:21:51;;;;;;;;;;;;;;;;;;5004345;28;19980;-63
2023/07/31 14:24:17;;;;;;;;;;;;;;;;;;5009814;28;19913;-62
2023/07/31 14:26:43;;;;;;;;;;;;;;;;;;5021280;28;19964;-63
2023/07/31 14:29:09;;;;;;;;;;;;;;;;;;5010078;28;20405;-63
2023/07/31 14:31:35;;;;;;;;;;;;;;;;;;5009891;28;20005;-62
2023/07/31 14:34:01;;;;;;;;;;;;;;;;;;5011702;28;20547;-62
2023/07/31 14:36:26;;;;;;;;;;;;;;;;;;5010187;28;19913;-63
2023/07/31 14:38:52;;;;;;;;;;;;;;;;;;5010412;28;19956;-62
2023/07/31 14:41:18;;;;;;;;;;;;;;;;;;5011208;28;19928;-62
2023/07/31 14:43:44;;;;;;;;;;;;;;;;;;5008336;28;20371;-62
2023/07/31 14:46:10;;;;;;;;;;;;;;;;;;5007063;28;19992;-63
2023/07/31 14:48:36;;;;;;;;;;;;;;;;;;5007478;28;19996;-62
2023/07/31 14:51:02;;;;;;;;;;;;;;;;;;5011434;28;19909;-63
2023/07/31 14:53:28;;;;;;;;;;;;;;;;;;5011127;28;20388;-62
2023/07/31 14:55:54;;;;;;;;;;;;;;;;;;5009269;28;19964;-62
2023/07/31 14:58:20;;;;;;;;;;;;;;;;;;5011666;28;19913;-63
2023/07/31 15:00:46;;;;;;;;;;;;;;;;;;5010373;28;19960;-62
2023/07/31 15:03:12;;;;;;;;;;;;;;;;;;5011471;28;20344;-60
2023/07/31 15:05:38;;;;;;;;;;;;;;;;;;5011272;28;20335;-70
2023/07/31 15:08:04;;;;;;;;;;;;;;;;;;5011618;28;19999;-70
2023/07/31 15:10:30;;;;;;;;;;;;;;;;;;5010725;28;19956;-70
2023/07/31 15:12:56;;;;;;;;;;;;;;;;;;5009650;28;20029;-68
2023/07/31 15:15:22;;;;;;;;;;;;;;;;;;5010945;28;19913;-67
2023/07/31 15:17:48;;;;;;;;;;;;;;;;;;5009021;28;21304;-69
2023/07/31 15:20:13;;;;;;;;;;;;;;;;;;5010478;28;19932;-70
2023/07/31 15:22:39;;;;;;;;;;;;;;;;;;5009457;28;19921;-69
2023/07/31 15:25:05;;;;;;;;;;;;;;;;;;4994192;28;20377;-70
2023/07/31 15:27:31;;;;;;;;;;;;;;;;;;5011264;28;20415;-70
2023/07/31 15:29:57;;;;;;;;;;;;;;;;;;4993323;28;20000;-68
2023/07/31 15:32:23;;;;;;;;;;;;;;;;;;5009179;28;19959;-69
2023/07/31 15:34:49;;;;;;;;;;;;;;;;;;4991743;28;19959;-70
2023/07/31 15:37:17;;;;;;;;;;;;;;;;;;5006449;28;19956;-70
2023/07/31 15:39:43;;;;;;;;;;;;;;;;;;5009789;28;19983;-71
2023/07/31 15:42:09;;;;;;;;;;;;;;;;;;5011027;28;19957;-70
2023/07/31 15:44:35;;;;;;;;;;;;;;;;;;5010752;28;19913;-69
2023/07/31 15:47:01;;;;;;;;;;;;;;;;;;5015381;28;19924;-70
2023/07/31 15:49:27;;;;;;;;;;;;;;;;;;5009627;28;19957;-70
2023/07/31 15:51:53;;;;;;;;;;;;;;;;;;5010867;28;19988;-65
2023/07/31 15:54:19;;;;;;;;;;;;;;;;;;5009774;28;20004;-71
2023/07/31 15:56:44;;;;;;;;;;;;;;;;;;5010539;28;19960;-70
2023/07/31 15:59:10;;;;;;;;;;;;;;;;;;5010861;28;20254;-71
2023/07/31 16:01:36;;;;;;;;;;;;;;;;;;5007029;28;19929;-71
2023/07/31 16:04:02;;;;;;;;;;;;;;;;;;5010331;28;19999;-71
2023/07/31 16:06:28;;;;;;;;;;;;;;;;;;4993394;28;19969;-71
2023/07/31 16:08:54;;;;;;;;;;;;;;;;;;5009744;28;19948;-71
2023/07/31 16:11:20;;;;;;;;;;;;;;;;;;5008366;28;19964;-71
2023/07/31 16:13:46;;;;;;;;;;;;;;;;;;5009775;28;19953;-67
2023/07/31 16:16:12;;;;;;;;;;;;;;;;;;5011064;28;20366;-67
2023/07/31 16:18:38;;;;;;;;;;;;;;;;;;5010166;28;19967;-67
2023/07/31 16:21:04;;;;;;;;;;;;;;;;;;5000254;28;19975;-66
2023/07/31 16:23:29;;;;;;;;;;;;;;;;;;5010422;28;19928;-68
2023/07/31 16:25:55;;;;;;;;;;;;;;;;;;5010008;28;19956;-67
2023/07/31 16:28:21;;;;;;;;;;;;;;;;;;5007698;28;19976;-66
2023/07/31 16:30:47;;;;;;;;;;;;;;;;;;5006670;28;19968;-67
2023/07/31 16:33:15;;;;;;;;;;;;;;;;;;5013356;28;20727;-67
2023/07/31 16:35:41;;;;;;;;;;;;;;;;;;5012108;28;19917;-67